Tiempo atmosférico en la estación meteorológica de Calasparra, Murcia (394 m.)



Fecha
DESCASC
Temp. máxima en grados centígrados (hora)
DESCASC
Temp. mínima en grados centígrados (hora)
DESCASC
Temp. media en grados centígrados
DESCASC
Racha de viento máxima en m/sg (hora)
DESCASC
Velocidad máxima media en intervalos de 10 minutos(hora)
DESCASC
Precipitaciones diarias en mm
DESCASC
Precipitaciones de 00:00 a 06:00 en mm
DESCASC
Precipitaciones de 06:00 a 12:00 en mm
DESCASC
Precipitaciones de 12:00 a 18:00 en mm
DESCASC
Precipitaciones de 18:00 a 24:00 en mm
DESCASC
20-09-2018 31.1 (16:40) 19.4 (08:20) 25.3 6.67 (18:30) 3.89 (18:10) 0 0 0 0 0
19-09-2018 30.4 (15:10) 18 (07:50) 24.2 7.5 (20:20) 4.72 (20:40) 0 0 0 0 0
18-09-2018 29.3 (17:50) 19.8 (05:50) 24.5 6.67 (20:10) 3.89 (20:10) 0 0 0 0 0
17-09-2018 25.2 (18:20) 18.7 (07:30) 22 4.17 (15:10) 2.78 (05:00) 0 0 0 0 0
16-09-2018 28.7 (16:00) 17 (00:00) 22.9 7.5 (18:40) 4.72 (18:30) 0 0 0 0 0
15-09-2018 23 (18:50) 19.2 (00:00) 21.1 4.44 (10:40) 2.78 (10:40) 9.2 0 7.8 1.4 0
14-09-2018 29.6 (15:00) 20.6 (00:00) 25.1 8.33 (19:00) 5.28 (19:00) 0 0 0 0 0
13-09-2018 31.9 (15:10) 18.6 (00:00) 25.3 10 (18:50) 6.11 (18:50) 0 0 0 0 0
12-09-2018 29.1 (17:40) 20.2 (00:00) 24.7 6.94 (18:30) 4.17 (15:10) 0 0 0 0 0
11-09-2018 26 (17:40) 17.8 (00:00) 21.9 4.17 (22:40) 2.5 (00:30) 0 0 0 0 0
10-09-2018 29.2 (17:00) 16.7 (00:00) 23 9.72 (03:40) 5.56 (03:30) 1.4 0.4 0 0 1
09-09-2018 25 (16:50) 16.6 (00:00) 20.8 6.11 (15:50) 3.61 (15:50) 0.2 0 0 0.2 0
08-09-2018 24.8 (15:00) 17.4 (00:00) 21.1 6.39 (09:00) 2.78 (19:40) 10 0 5.4 0.8 3.8
07-09-2018 30 (15:50) 19.3 (00:00) 24.6 9.72 (19:10) 6.39 (19:10) 0 0 0 0 0
06-09-2018 32 (17:40) 18.8 (00:00) 25.4 10 (20:00) 5.56 (20:10) 0 0 0 0 0
05-09-2018 32.5 (17:00) 21.3 (00:00) 26.9 9.72 (18:00) 5.28 (18:00) 0 0 0 0 0
04-09-2018 32.8 (17:00) 19.4 (00:00) 26.1 10.56 (17:50) 6.11 (17:50) 0 0 0 0 0
03-09-2018 32.1 (15:00) 20.6 (00:00) 26.3 12.22 (19:10) 5.28 (19:10) 6.2 1.2 0.2 0 4.8
02-09-2018 32.9 (16:50) 19.6 (00:00) 26.3 8.33 (15:50) 5 (18:10) 0 0 0 0 0
01-09-2018 31.4 (16:20) 20.5 (00:00) 25.9 9.72 (17:20) 5.83 (18:20) 0 0 0 0 0
31-08-2018 32.6 (16:50) 20.9 (00:00) 26.7 9.17 (19:50) 5.28 (19:50) 0 0 0 0 0
30-08-2018 32 (16:50) 20.7 (00:00) 26.4 8.89 (18:20) 5 (18:30) 0.4 0.2 0.2 0 0
29-08-2018 34.1 (16:50) 19.6 (00:00) 26.8 10.83 (19:40) 7.22 (19:40) 0 0 0 0 0
28-08-2018 33.4 (16:50) 21.2 (00:00) 27.3 11.11 (17:20) 6.67 (17:20) 0 0 0 0 0
27-08-2018 33.4 (17:20) 22.4 (00:00) 27.9 9.72 (18:50) 5.83 (18:40) 0 0 0 0 0
26-08-2018 33 (16:10) 21 (00:00) 27 10.28 (19:10) 6.39 (18:30) 0 0 0 0 0
25-08-2018 35 (15:40) 21.5 (00:00) 28.3 9.72 (19:20) 6.11 (19:00) 0 0 0 0 0
24-08-2018 35.5 (17:50) 18.6 (00:00) 27.1 12.22 (18:40) 6.39 (18:40) 0 0 0 0 0

Gráficas

Temp. máximas Temp. mínimas Temp. medias Precipitaciones Rachas de viento máximas Velocidades máximas media en intervalos de 10 minutos

Datos horarios

Fecha y hora oficial Temperatura (ºC) Velocidad del viento (km/h) Dirección del viento Racha (km/h) Dirección de racha Precipitación (mm) Presión (hPa) Tendencia (hPa) Humedad (%)
2018-09-22 23:00:00 25.4 0 Calma 13 Sur 0 -- -- 45
2018-09-22 22:00:00 26 10 Sudeste 21 Sudeste 0 -- -- 47
2018-09-22 21:00:00 27.2 10 Sudeste 18 Sudeste 0 -- -- 51
2018-09-22 20:00:00 29 9 Sudeste 24 Sudeste 0 -- -- 47
2018-09-22 19:00:00 30.6 13 Sudeste 27 Sudeste 0 -- -- 41
2018-09-22 18:00:00 31.7 13 Sudeste 22 Sudeste 0 -- -- 37
2018-09-22 17:00:00 32.6 12 Sudeste 22 Sudeste 0 -- -- 30
2018-09-22 16:00:00 33.1 10 Sudeste 22 Sudeste 0 -- -- 28
2018-09-22 15:00:00 32.3 9 Sudeste 18 Sudeste 0 -- -- 32
2018-09-22 14:00:00 31 9 Sudeste 17 Sudeste 0 -- -- 38
2018-09-22 13:00:00 29.7 6 Este 13 Sudeste 0 -- -- 42
2018-09-22 12:00:00 27.8 5 Sudeste 10 Sudeste 0 -- -- 50
2018-09-22 11:00:00 25 4 Nordeste 8 Noroeste 0 -- -- 56
2018-09-22 10:00:00 23.1 2 Este 6 Sudeste 0 -- -- 59
2018-09-22 09:00:00 20.4 4 Sur 7 Sur 0 -- -- 73
2018-09-22 08:00:00 18.9 0 Calma 5 Sur 0 -- -- 75
2018-09-22 07:00:00 19.4 4 Sur 8 Sur 0 -- -- 75
2018-09-22 06:00:00 19.8 5 Sur 7 Sur 0 -- -- 76
2018-09-22 05:00:00 20.3 4 Sur 6 Sur 0 -- -- 75
2018-09-22 04:00:00 21.1 4 Sudeste 8 Sur 0 -- -- 72
2018-09-22 03:00:00 21.8 4 Sur 5 Sur 0 -- -- 70
2018-09-22 02:00:00 22.7 3 Sur 8 Sur 0 -- -- 67
2018-09-22 01:00:00 23.4 7 Sur 14 Sur 0 -- -- 64
2018-09-22 00:00:00 24.1 9 Sur 14 Sur 0 -- -- 61
2018-09-21 23:00:00 25.2 3 Norte 7 Sudeste 0 -- -- 65
2018-09-21 22:00:00 26.6 6 Sudeste 12 Sudeste 0 -- -- 54
2018-09-21 21:00:00 27.6 9 Sudeste 28 Sudeste 0 -- -- 49
2018-09-21 20:00:00 29.7 15 Sudeste 27 Sudeste 0 -- -- 41
2018-09-21 19:00:00 31.9 13 Sudeste 23 Sudeste 0 -- -- 35
2018-09-21 18:00:00 33 9 Sudeste 21 Sudeste 0 -- -- 31
2018-09-21 17:00:00 33.3 14 Sudeste 26 Sudeste 0 -- -- 29
2018-09-21 16:00:00 32.9 12 Sudeste 18 Este 0 -- -- 32
2018-09-21 15:00:00 32.9 6 Sudeste 13 Este 0 -- -- 33
2018-09-21 14:00:00 31 5 Noroeste 12 Noroeste 0 -- -- 37
2018-09-21 13:00:00 29.5 3 Este 9 Este 0 -- -- 43
2018-09-21 12:00:00 27.1 4 Este 9 Sudeste 0 -- -- 50
2018-09-21 11:00:00 24.3 2 Sudeste 6 Este 0 -- -- 60
2018-09-21 10:00:00 21.4 2 Norte 6 Sur 0 -- -- 69
2018-09-21 09:00:00 19.1 4 Sudeste 6 Sudeste 0 -- -- 80
2018-09-21 08:00:00 17.7 4 Sur 5 Sudeste 0 -- -- 84
2018-09-21 07:00:00 17.9 3 Sudeste 5 Sudeste 0 -- -- 84
2018-09-21 06:00:00 18.4 4 Sudoeste 6 Sudoeste 0 -- -- 84
2018-09-21 05:00:00 18.8 3 Sur 6 Sur 0 -- -- 84
2018-09-21 04:00:00 19.7 3 Sudeste 6 Sudoeste 0 -- -- 82
2018-09-21 03:00:00 19.9 5 Sur 8 Sur 0 -- -- 81
2018-09-21 02:00:00 21 4 Oeste 5 Oeste 0 -- -- 81
2018-09-21 01:00:00 21.7 0 Calma 6 Sudeste 0 -- -- 78
2018-09-21 00:00:00 22.2 0 Calma 16 Sudeste 0 -- -- 76
2018-09-20 23:00:00 23.6 8 Sudeste 17 Sudeste 0 -- -- 73
2018-09-20 22:00:00 24.5 12 Sudeste 20 Sudeste 0 -- -- 69
2018-09-20 21:00:00 26.1 2 Este 13 Sudeste 0 -- -- 54
2018-09-20 20:00:00 27.8 9 Sudeste 22 Sudeste 0 -- -- 46
2018-09-20 19:00:00 29.3 12 Sudeste 24 Sudeste 0 -- -- 41
2018-09-20 18:00:00 30.5 11 Sudeste 20 Sudeste 0 -- -- 37
2018-09-20 17:00:00 31 12 Sudeste 19 Sudeste 0 -- -- 35
2018-09-20 16:00:00 30.6 11 Sudeste 21 Sudeste 0 -- -- 40
2018-09-20 15:00:00 30.7 7 Sudeste 15 Sudeste 0 -- -- 36
2018-09-20 14:00:00 29.3 9 Sudeste 15 Sudeste 0 -- -- 41
2018-09-20 13:00:00 27.9 5 Este 10 Este 0 -- -- 56
2018-09-20 12:00:00 26 3 Este 10 Este 0 -- -- 59
2018-09-20 11:00:00 24.4 3 Este 8 Este 0 -- -- 68
2018-09-20 10:00:00 22.3 3 Sur 8 Sur 0 -- -- 76
2018-09-20 09:00:00 19.4 5 Sur 9 Sur 0 -- -- 84
2018-09-20 08:00:00 19.5 3 Sur 7 Sur 0 -- -- 82
2018-09-20 07:00:00 20.2 0 Calma 3 Sudeste 0 -- -- 83
2018-09-20 06:00:00 20.3 0 Calma 9 Oeste 0 -- -- 85
2018-09-20 05:00:00 20.4 3 Oeste 5 Oeste 0 -- -- 86
2018-09-20 04:00:00 20.2 0 Calma 5 Oeste 0 -- -- 87
2018-09-20 03:00:00 20.7 0 Calma 3 Este 0 -- -- 84
2018-09-20 02:00:00 21.4 3 Sudeste 4 Sur 0 -- -- 83
2018-09-20 01:00:00 21.8 2 Sudeste 6 Sur 0 -- -- 82
2018-09-20 00:00:00 22.3 3 Sudeste 9 Sudeste 0 -- -- 79
2018-09-19 23:00:00 22.8 2 Nordeste 14 Sudeste 0 -- -- 75
2018-09-19 22:00:00 23.5 10 Sudeste 17 Sudeste 0 -- -- 72
2018-09-19 21:00:00 24.5 13 Sudeste 27 Sudeste 0 -- -- 69
2018-09-19 20:00:00 26.4 12 Sudeste 24 Sudeste 0 -- -- 63
2018-09-19 19:00:00 28.1 14 Sudeste 24 Sudeste 0 -- -- 48
2018-09-19 18:00:00 29.2 11 Sudeste 18 Sudeste 0 -- -- 46
2018-09-19 17:00:00 28.9 11 Sudeste 16 Este 0 -- -- 47
2018-09-19 16:00:00 29.8 6 Nordeste 19 Este 0 -- -- 42
2018-09-19 15:00:00 30.2 7 Sudeste 14 Este 0 -- -- 43
2018-09-19 14:00:00 29.1 5 Norte 13 Este 0 -- -- 44
2018-09-19 13:00:00 27.6 7 Nordeste 13 Nordeste 0 -- -- 49
2018-09-19 12:00:00 25.8 4 Nordeste 13 Este 0 -- -- 56
2018-09-19 11:00:00 23.7 6 Norte 14 Nordeste 0 -- -- 63
2018-09-19 10:00:00 21.8 4 Nordeste 9 Oeste 0 -- -- 73
2018-09-19 09:00:00 19.6 5 Oeste 10 Oeste 0 -- -- 80
2018-09-19 08:00:00 18 3 Sudoeste 5 Sudoeste 0 -- -- 87
2018-09-19 07:00:00 18.7 0 Calma 5 Sur 0 -- -- 84
2018-09-19 06:00:00 18.9 3 Oeste 10 Oeste 0 -- -- 82
2018-09-19 05:00:00 18.8 5 Noroeste 8 Noroeste 0 -- -- 86
2018-09-19 04:00:00 19.8 4 Nordeste 10 Sur 0 -- -- 85
2018-09-19 03:00:00 20.7 8 Sur 13 Sur 0 -- -- 82
2018-09-19 02:00:00 21.1 11 Sur 16 Sur 0 -- -- 78
2018-09-19 01:00:00 21.6 7 Oeste 15 Sudoeste 0 -- -- 77
2018-09-19 00:00:00 21.9 6 Sur 18 Nordeste 0 -- -- 77
2018-09-18 23:00:00 20.9 12 Nordeste 18 Norte 0 -- -- 79
2018-09-18 22:00:00 22.7 5 Nordeste 17 Sudeste 0 -- -- 72
2018-09-18 21:00:00 24 10 Sudeste 24 Sudeste 0 -- -- 67
2018-09-18 20:00:00 26.5 10 Sudeste 20 Sudeste 0 -- -- 66
2018-09-18 19:00:00 27.8 8 Sudoeste 14 Sudoeste 0 -- -- 54
2018-09-18 18:00:00 29.3 5 Sur 12 Sudoeste 0 -- -- 47
2018-09-18 17:00:00 28.7 5 Sur 15 Sur 0 -- -- 50
2018-09-18 16:00:00 29 6 Sur 12 Sudeste 0 -- -- 52
2018-09-18 15:00:00 28.4 4 Sudoeste 12 Sudeste 0 -- -- 54
2018-09-18 14:00:00 28.2 8 Sudeste 15 Este 0 -- -- 56
2018-09-18 13:00:00 27.2 4 Sudeste 10 Sudoeste 0 -- -- 60
2018-09-18 12:00:00 26 5 Sudeste 12 Este 0 -- -- 63
2018-09-18 11:00:00 24.5 5 Nordeste 9 Norte 0 -- -- 69
2018-09-18 10:00:00 22.5 7 Noroeste 12 Noroeste 0 -- -- 75
2018-09-18 09:00:00 20.4 0 Calma 7 Sudoeste 0 -- -- 82
2018-09-18 08:00:00 19.8 0 Calma 6 Sudeste 0 -- -- 88
2018-09-18 07:00:00 20.1 3 Sur 13 Sudoeste 0 -- -- 87
2018-09-18 06:00:00 19.9 5 Oeste 14 Oeste 0 -- -- 84
2018-09-18 05:00:00 19.9 7 Oeste 12 Oeste 0 -- -- 91
2018-09-18 04:00:00 20.3 4 Sur 8 Sur 0 -- -- 90
2018-09-18 03:00:00 20.5 6 Sur 12 Sur 0 -- -- 89
2018-09-18 02:00:00 21.2 3 Sudeste 6 Sudeste 0 -- -- 88
2018-09-18 01:00:00 21.7 4 Sur 6 Sur 0 -- -- 87
2018-09-18 00:00:00 21.9 5 Sur 10 Sudeste 0 -- -- 86
2018-09-17 23:00:00 22.4 5 Sudeste 10 Sudeste 0 -- -- 85
2018-09-17 22:00:00 22.9 4 Sudeste 13 Sudeste 0 -- -- 83
2018-09-17 21:00:00 23.6 7 Sudeste 14 Sudeste 0 -- -- 79
2018-09-17 20:00:00 24.4 7 Sudeste 12 Sudeste 0 -- -- 73
2018-09-17 19:00:00 24.9 6 Sudeste 12 Sudeste 0 -- -- 68
2018-09-17 18:00:00 25 2 Este 12 Sur 0 -- -- 68
2018-09-17 17:00:00 24.8 4 Sur 13 Sur 0 -- -- 69
2018-09-17 16:00:00 24.4 8 Sudeste 15 Sudeste 0 -- -- 72
2018-09-17 15:00:00 24.7 10 Sudeste 14 Sur 0 -- -- 69
2018-09-17 14:00:00 25 3 Sudeste 9 Sudeste 0 -- -- 69
2018-09-17 13:00:00 24 3 Oeste 8 Sudeste 0 -- -- 73
2018-09-17 12:00:00 22.5 4 Sur 9 Sur 0 -- -- 79
2018-09-17 11:00:00 21.2 2 Sudeste 9 Sudeste 0 -- -- 84
2018-09-17 10:00:00 20.1 5 Sudeste 9 Sudeste 0 -- -- 87
2018-09-17 09:00:00 19.6 0 Calma 8 Sur 0 -- -- 89
2018-09-17 08:00:00 19 3 Sur 4 Sur 0 -- -- 91
2018-09-17 07:00:00 19 3 Oeste 10 Sur 0 -- -- 90
2018-09-17 06:00:00 19.6 4 Sur 11 Oeste 0 -- -- 89
2018-09-17 05:00:00 19.5 10 Oeste 13 Oeste 0 -- -- 91
2018-09-17 04:00:00 19.7 5 Oeste 8 Oeste 0 -- -- 89
2018-09-17 03:00:00 20.7 3 Sur 5 Sur 0 -- -- 86
2018-09-17 02:00:00 20.9 3 Sudeste 12 Sur 0 -- -- 84
2018-09-17 01:00:00 21.6 5 Sur 9 Sudeste 0 -- -- 82
2018-09-17 00:00:00 22 2 Sudeste 6 Sudeste 0 -- -- 79
2018-09-16 23:00:00 22.5 3 Sudeste 6 Sur 0 -- -- 76
2018-09-16 22:00:00 22.9 3 Sudeste 16 Sudeste 0 -- -- 75
2018-09-16 21:00:00 23.9 9 Sudeste 19 Sudeste 0 -- -- 72
2018-09-16 20:00:00 25.2 11 Sudeste 26 Sudeste 0 -- -- 66
2018-09-16 19:00:00 26.7 16 Sudeste 27 Sudeste 0 -- -- 57
2018-09-16 18:00:00 27.7 16 Sudeste 26 Sudeste 0 -- -- 51
2018-09-16 17:00:00 28.6 10 Sudeste 19 Sudeste 0 -- -- 50
2018-09-16 16:00:00 28.7 9 Sudeste 16 Sudeste 0 -- -- 44
2018-09-16 15:00:00 27.9 9 Sur 15 Sudeste 0 -- -- 52
2018-09-16 14:00:00 26.6 9 Sudeste 15 Sudeste 0 -- -- 59
2018-09-16 13:00:00 24.6 5 Este 14 Oeste 0 -- -- 67
2018-09-16 12:00:00 22.4 4 Norte 8 Nordeste 0 -- -- 76
2018-09-16 11:00:00 20.4 3 Sudeste 6 Norte 0 -- -- 80
2018-09-16 10:00:00 18.7 4 Norte 9 Noroeste 0 -- -- 87
2018-09-16 09:00:00 17.7 5 Noroeste 8 Oeste 0 -- -- 92
2018-09-16 08:00:00 17.2 4 Oeste 8 Oeste 0 -- -- 93
2018-09-16 07:00:00 17 0 Calma 6 Noroeste 0 -- -- 92
2018-09-16 06:00:00 17.6 0 Calma 5 Sudoeste 0 -- -- 91
2018-09-16 05:00:00 17.9 3 Sur 6 Oeste 0 -- -- 92
2018-09-16 04:00:00 18.3 4 Sur 8 Sur 0 -- -- 90
2018-09-16 03:00:00 18.8 3 Sur 8 Oeste 0 -- -- 89
2018-09-16 02:00:00 18.9 0 Calma 6 Noroeste 0 -- -- 88
2018-09-16 01:00:00 19.2 5 Noroeste 10 Noroeste 0 -- -- 89
2018-09-16 00:00:00 20.1 7 Oeste 10 Oeste 0 -- -- 88
2018-09-15 23:00:00 20.4 0 Calma 5 Nordeste 0 -- -- 87
2018-09-15 22:00:00 21.3 2 Nordeste 7 Sudeste 0 -- -- 83
2018-09-15 21:00:00 21.9 5 Sudeste 8 Sudeste 0 -- -- 80
2018-09-15 20:00:00 22.5 0 Calma 6 Oeste 0 -- -- 78
2018-09-15 19:00:00 22.9 3 Norte 5 Noroeste 0 -- -- 74
2018-09-15 18:00:00 22.7 0 Calma 8 Norte 0 -- -- 75
2018-09-15 17:00:00 22.2 7 Nordeste 11 Nordeste 0 -- -- 78
2018-09-15 16:00:00 21.9 4 Sudeste 11 Sur 0.4 -- -- 83
2018-09-15 15:00:00 21.4 0 Calma 6 Este 1 -- -- 85
2018-09-15 14:00:00 21.7 3 Sudoeste 10 Sur 0 -- -- 82
2018-09-15 13:00:00 20.5 2 Noroeste 5 Norte 0 -- -- 88
2018-09-15 12:00:00 19.3 4 Oeste 11 Sudoeste 3.2 -- -- 92
2018-09-15 11:00:00 19.4 7 Sudeste 16 Sudeste 4.4 -- -- 90
2018-09-15 10:00:00 20.7 3 Sudoeste 8 Oeste 0 -- -- 87
2018-09-15 09:00:00 20.4 4 Sudoeste 12 Sudeste 0.2 -- -- 89
2018-09-15 08:00:00 20.3 2 Nordeste 10 Oeste 0 -- -- 88
2018-09-15 07:00:00 20.5 7 Noroeste 10 Noroeste 0 -- -- 84
2018-09-15 06:00:00 20.5 6 Noroeste 9 Oeste 0 -- -- 83
2018-09-15 05:00:00 20.6 3 Oeste 12 Oeste 0 -- -- 83
2018-09-15 04:00:00 20.5 7 Oeste 11 Noroeste 0 -- -- 83
2018-09-15 03:00:00 21.3 2 Nordeste 6 Noroeste 0 -- -- 81
2018-09-15 02:00:00 21.5 2 Sudeste 10 Sur 0 -- -- 79
2018-09-15 01:00:00 21.8 5 Sur 13 Sudeste 0 -- -- 78
2018-09-15 00:00:00 22.1 8 Sudeste 13 Sudeste 0 -- -- 76
2018-09-14 23:00:00 22.6 6 Sudeste 21 Sudeste 0 -- -- 71
2018-09-14 22:00:00 23.4 15 Sudeste 26 Sudeste 0 -- -- 68
2018-09-14 21:00:00 24.2 10 Sudeste 20 Sudeste 0 -- -- 69
2018-09-14 20:00:00 25.3 10 Sudeste 28 Sudeste 0 -- -- 62
2018-09-14 19:00:00 26.7 19 Sudeste 30 Sudeste 0 -- -- 59
2018-09-14 18:00:00 28.3 12 Sudeste 27 Este 0 -- -- 47
2018-09-14 17:00:00 28.6 13 Sudeste 24 Sudeste 0 -- -- 47
2018-09-14 16:00:00 28.8 15 Sudeste 29 Sur 0 -- -- 46
2018-09-14 15:00:00 29.6 12 Sur 28 Sudeste 0 -- -- 45
2018-09-14 14:00:00 28.2 13 Sudeste 22 Sudeste 0 -- -- 49
2018-09-14 13:00:00 27.7 10 Sudeste 19 Sudeste 0 -- -- 52
2018-09-14 12:00:00 25.6 3 Sudeste 11 Este 0 -- -- 68
2018-09-14 11:00:00 23.3 3 Este 6 Nordeste 0 -- -- 80
2018-09-14 10:00:00 21.5 4 Nordeste 7 Este 0 -- -- 86
2018-09-14 09:00:00 21 4 Sudeste 6 Sudeste 0 -- -- 88
2018-09-14 08:00:00 20.6 4 Sudeste 11 Sudeste 0 -- -- 89
2018-09-14 07:00:00 20.9 6 Sudeste 10 Sudeste 0 -- -- 87
2018-09-14 06:00:00 21.5 4 Sudeste 6 Sudeste 0 -- -- 84
2018-09-14 05:00:00 21.5 2 Oeste 5 Oeste 0 -- -- 84
2018-09-14 04:00:00 21.2 5 Oeste 6 Noroeste 0 -- -- 87
2018-09-14 03:00:00 21.3 2 Norte 5 Noroeste 0 -- -- 87
2018-09-14 02:00:00 22 0 Calma 9 Sudeste 0 -- -- 83
2018-09-14 01:00:00 22.2 5 Este 8 Este 0 -- -- 81
2018-09-14 00:00:00 22.8 3 Este 12 Sur 0 -- -- 79
2018-09-13 23:00:00 23.5 9 Sudeste 18 Sur 0 -- -- 76
2018-09-13 22:00:00 24.3 9 Sudeste 22 Sudeste 0 -- -- 71
2018-09-13 21:00:00 25.2 12 Sudeste 36 Sudeste 0 -- -- 67
2018-09-13 20:00:00 26.8 17 Sudeste 35 Sudeste 0 -- -- 60
2018-09-13 19:00:00 29.2 17 Sudeste 36 Sudeste 0 -- -- 49
2018-09-13 18:00:00 30.4 20 Sudeste 33 Este 0 -- -- 44
2018-09-13 17:00:00 31.7 13 Sudeste 20 Sudeste 0 -- -- 35
2018-09-13 16:00:00 31.6 7 Sudeste 20 Sur 0 -- -- 38
2018-09-13 15:00:00 31.8 9 Sudeste 22 Sudeste 0 -- -- 39
2018-09-13 14:00:00 31.2 10 Sudeste 19 Sudeste 0 -- -- 42
2018-09-13 13:00:00 29.5 5 Nordeste 11 Este 0 -- -- 45
2018-09-13 12:00:00 28.1 5 Sudeste 10 Este 0 -- -- 52
2018-09-13 11:00:00 24.9 4 Noroeste 8 Noroeste 0 -- -- 63
2018-09-13 10:00:00 22.6 2 Este 6 Sur 0 -- -- 74
2018-09-13 09:00:00 20.3 2 Este 7 Noroeste 0 -- -- 83
2018-09-13 08:00:00 18.8 4 Oeste 6 Oeste 0 -- -- 87
2018-09-13 07:00:00 19.1 0 Calma 9 Oeste 0 -- -- 86
2018-09-13 06:00:00 19.5 7 Oeste 10 Oeste 0 -- -- 85
2018-09-13 05:00:00 20 6 Noroeste 10 Noroeste 0 -- -- 84
2018-09-13 04:00:00 20.7 3 Oeste 9 Oeste 0 -- -- 82
2018-09-13 03:00:00 20.6 0 Calma 6 Sudeste 0 -- -- 84
2018-09-13 02:00:00 21 3 Sur 9 Sur 0 -- -- 82
2018-09-13 01:00:00 21.4 5 Sur 8 Sur 0 -- -- 78
2018-09-13 00:00:00 22.2 3 Sur 7 Oeste 0 -- -- 73
2018-09-12 23:00:00 22.9 2 Oeste 10 Sur 0 -- -- 68
2018-09-12 22:00:00 23.3 3 Este 15 Sudeste 0 -- -- 67
2018-09-12 21:00:00 23.9 8 Sur 23 Sur 0 -- -- 65
2018-09-12 20:00:00 26.4 14 Sur 24 Sur 0 -- -- 61
2018-09-12 19:00:00 28.2 12 Sudeste 25 Sudeste 0 -- -- 57
2018-09-12 18:00:00 29.1 15 Este 24 Sudeste 0 -- -- 52
2018-09-12 17:00:00 28.7 14 Sudeste 24 Este 0 -- -- 55
2018-09-12 16:00:00 28.2 12 Este 24 Sudeste 0 -- -- 58
2018-09-12 15:00:00 28.3 8 Sudeste 22 Sudeste 0 -- -- 57
2018-09-12 14:00:00 27.3 6 Este 22 Sudeste 0 -- -- 63
2018-09-12 13:00:00 26.2 7 Este 16 Sudeste 0 -- -- 64
2018-09-12 12:00:00 25.7 5 Sudeste 14 Sudeste 0 -- -- 66
2018-09-12 11:00:00 23.8 4 Norte 8 Norte 0 -- -- 76
2018-09-12 10:00:00 22 3 Norte 5 Norte 0 -- -- 82
2018-09-12 09:00:00 20.5 0 Calma 9 Sur 0 -- -- 88
2018-09-12 08:00:00 20.4 0 Calma 6 Sur 0 -- -- 88
2018-09-12 07:00:00 20.8 0 Calma 10 Oeste 0 -- -- 88
2018-09-12 06:00:00 20.6 7 Oeste 9 Oeste 0 -- -- 89
2018-09-12 05:00:00 21.2 0 Calma 3 Este 0 -- -- 87
2018-09-12 04:00:00 21.3 2 Este 5 Este 0 -- -- 86
2018-09-12 03:00:00 21.8 0 Calma 4 Sudoeste 0 -- -- 83
2018-09-12 02:00:00 21.7 2 Noroeste 4 Noroeste 0 -- -- 82
2018-09-12 01:00:00 21.9 2 Norte 5 Noroeste 0 -- -- 81
2018-09-12 00:00:00 21.9 3 Norte 9 Norte 0 -- -- 81
2018-09-11 23:00:00 22.8 5 Nordeste 15 Nordeste 0 -- -- 77
2018-09-11 22:00:00 23.5 3 Sur 4 Sur 0 -- -- 73
2018-09-11 21:00:00 24.2 0 Calma -- -- 0 -- -- 69
2018-09-11 20:00:00 25 0 Calma 4 Este 0 -- -- 66
2018-09-11 19:00:00 25.7 0 Calma 5 Nordeste 0 -- -- 63
2018-09-11 18:00:00 25.7 3 Norte 9 Nordeste 0 -- -- 62
2018-09-11 17:00:00 25.7 4 Norte 14 Nordeste 0 -- -- 63
2018-09-11 16:00:00 25.8 4 Nordeste 10 Nordeste 0 -- -- 61
2018-09-11 15:00:00 25.2 4 Norte 10 Noroeste 0 -- -- 62
2018-09-11 14:00:00 24.1 6 Noroeste 12 Noroeste 0 -- -- 66
2018-09-11 13:00:00 23.5 3 Sudoeste 6 Noroeste 0 -- -- 69
2018-09-11 12:00:00 22.7 3 Noroeste 6 Nordeste 0 -- -- 71
2018-09-11 11:00:00 22 5 Norte 13 Norte 0 -- -- 74
2018-09-11 10:00:00 20.5 6 Noroeste 13 Norte 0 -- -- 82
2018-09-11 09:00:00 19.1 3 Norte 7 Noroeste 0 -- -- 86
2018-09-11 08:00:00 18.6 2 Noroeste 9 Oeste 0 -- -- 86
2018-09-11 07:00:00 18.1 0 Calma 10 Oeste 0 -- -- 87
2018-09-11 06:00:00 18.4 6 Noroeste 12 Oeste 0 -- -- 86
2018-09-11 05:00:00 17.9 0 Calma 6 Noroeste 0 -- -- 88
2018-09-11 04:00:00 18.2 4 Noroeste 12 Oeste 0 -- -- 87
2018-09-11 03:00:00 18.6 6 Oeste 11 Oeste 0 -- -- 86
2018-09-11 02:00:00 19.6 8 Oeste 12 Oeste 0 -- -- 82
2018-09-11 01:00:00 19.9 8 Oeste 13 Noroeste 0 -- -- 82
2018-09-11 00:00:00 19.9 3 Oeste 7 Oeste 0 -- -- 88
2018-09-10 23:00:00 20.5 3 Noroeste 6 Noroeste 0 -- -- 88
2018-09-10 22:00:00 20.8 4 Norte 12 Sur 0.2 -- -- 86
2018-09-10 21:00:00 21.5 5 Sudeste 16 Sudeste 0 -- -- 79
2018-09-10 20:00:00 21.7 6 Este 35 Este 0.8 -- -- 81
2018-09-10 19:00:00 26 17 Nordeste 30 Nordeste 0 -- -- 57
2018-09-10 18:00:00 27.7 14 Nordeste 22 Este 0 -- -- 53
2018-09-10 17:00:00 29.2 8 Sudeste 20 Nordeste 0 -- -- 49
2018-09-10 16:00:00 28.4 6 Este 16 Nordeste 0 -- -- 48
2018-09-10 15:00:00 28.2 9 Este 15 Este 0 -- -- 50
2018-09-10 14:00:00 27.3 5 Nordeste 15 Este 0 -- -- 53
2018-09-10 13:00:00 25.9 4 Sur 18 Norte 0 -- -- 60
2018-09-10 12:00:00 23.2 9 Noroeste 22 Oeste 0 -- -- 65
2018-09-10 11:00:00 21.8 14 Noroeste 25 Oeste 0 -- -- 70
2018-09-10 10:00:00 19.9 8 Noroeste 20 Norte 0 -- -- 77
2018-09-10 09:00:00 18.1 3 Nordeste 12 Oeste 0 -- -- 84
2018-09-10 08:00:00 16.7 6 Oeste 12 Sudoeste 0 -- -- 88
2018-09-10 07:00:00 16.8 2 Sudoeste 7 Oeste 0 -- -- 90
2018-09-10 06:00:00 17.3 3 Sudoeste 6 Nordeste 0 -- -- 90
2018-09-10 05:00:00 17.8 4 Sudoeste 20 Noroeste 0.4 -- -- 89
2018-09-10 04:00:00 18.2 11 Noroeste 35 Noroeste 0 -- -- 84
2018-09-10 03:00:00 19.7 14 Noroeste 26 Noroeste 0 -- -- 87
2018-09-10 02:00:00 20.3 8 Oeste 13 Oeste 0 -- -- 85
2018-09-10 01:00:00 20.6 7 Sur 12 Sur 0 -- -- 85
2018-09-10 00:00:00 20.7 6 Oeste 9 Oeste 0 -- -- 85
2018-09-09 23:00:00 21.3 0 Calma 11 Oeste 0 -- -- 82
2018-09-09 22:00:00 22.3 4 Oeste 11 Oeste 0 -- -- 77
2018-09-09 21:00:00 23 3 Sur 16 Sudeste 0 -- -- 73
2018-09-09 20:00:00 23.8 6 Este 12 Este 0 -- -- 69
2018-09-09 19:00:00 24.5 3 Nordeste 13 Nordeste 0 -- -- 66
2018-09-09 18:00:00 24.7 5 Sur 10 Sudeste 0 -- -- 65
2018-09-09 17:00:00 24.9 4 Nordeste 13 Oeste 0 -- -- 63
2018-09-09 16:00:00 22.4 8 Noroeste 22 Oeste 0 -- -- 76
2018-09-09 15:00:00 22 4 Sur 15 Sur 0.2 -- -- 78
2018-09-09 14:00:00 22.9 6 Sudeste 14 Sudeste 0 -- -- 72
2018-09-09 13:00:00 23.6 4 Este 9 Nordeste 0 -- -- 65
2018-09-09 12:00:00 23 4 Nordeste 10 Norte 0 -- -- 69
2018-09-09 11:00:00 21.8 5 Noroeste 10 Noroeste 0 -- -- 71
2018-09-09 10:00:00 19.5 5 Norte 10 Sur 0 -- -- 80
2018-09-09 09:00:00 18 4 Sudoeste 10 Oeste 0 -- -- 84
2018-09-09 08:00:00 16.7 3 Oeste 9 Sudoeste 0 -- -- 87
2018-09-09 07:00:00 16.7 3 Oeste 18 Noroeste 0 -- -- 89
2018-09-09 06:00:00 16.9 4 Oeste 12 Oeste 0 -- -- 89
2018-09-09 05:00:00 17.4 6 Noroeste 13 Noroeste 0 -- -- 89
2018-09-09 04:00:00 17.8 5 Noroeste 12 Noroeste 0 -- -- 90
2018-09-09 03:00:00 17.8 5 Noroeste 16 Noroeste 0 -- -- 92
2018-09-09 02:00:00 17.5 9 Noroeste 16 Oeste 0 -- -- 92
2018-09-09 01:00:00 17.4 4 Oeste 13 Sudeste 0 -- -- 91
2018-09-09 00:00:00 18 5 Sudeste 8 Sudeste 0.2 -- -- 90
2018-09-08 23:00:00 18.2 5 Sur 14 Sudoeste 0 -- -- 89
2018-09-08 22:00:00 18.1 3 Sur 18 Oeste 0 -- -- 90
2018-09-08 21:00:00 18.6 5 Sudoeste 10 Sur 0.2 -- -- 89
2018-09-08 20:00:00 18.9 3 Este 18 Sudoeste 2.8 -- -- 87
2018-09-08 19:00:00 20.5 9 Sudoeste 19 Sudoeste 0.6 -- -- 81
2018-09-08 18:00:00 21.9 5 Sudoeste 17 Sur 0 -- -- 82
2018-09-08 17:00:00 22.3 5 Nordeste 14 Este 0.6 -- -- 80
2018-09-08 16:00:00 23.9 3 Este 13 Sudoeste 0 -- -- 59
2018-09-08 15:00:00 24.8 6 Sudoeste 16 Sur 0 -- -- 59
2018-09-08 14:00:00 22.8 9 Sur 16 Sur 0 -- -- 71
2018-09-08 13:00:00 18.9 5 Nordeste 12 Este 0.2 -- -- 91
2018-09-08 12:00:00 18.3 6 Sudeste 10 Sudeste 1 -- -- 91
2018-09-08 11:00:00 18.1 6 Nordeste 12 Sudeste 2.6 -- -- 90
2018-09-08 10:00:00 18.3 3 Sudeste 16 Sudoeste 1.6 -- -- 88
2018-09-08 09:00:00 17.7 9 Sudoeste 23 Sudoeste 0.2 -- -- 86
2018-09-08 08:00:00 17.5 0 Calma 8 Sur 0 -- -- 82
2018-09-08 07:00:00 17.8 5 Sur 10 Sur 0 -- -- 81
2018-09-08 06:00:00 17.7 5 Sur 8 Sudeste 0 -- -- 81
2018-09-08 05:00:00 17.8 0 Calma 8 Sudeste 0 -- -- 80
2018-09-08 04:00:00 18.7 5 Sur 8 Sudoeste 0 -- -- 77
2018-09-08 03:00:00 19.7 0 Calma 5 Oeste 0 -- -- 80
2018-09-08 02:00:00 20.5 2 Norte 7 Este 0 -- -- 78
2018-09-08 01:00:00 21.2 5 Sudeste 10 Sur 0 -- -- 72
2018-09-08 00:00:00 22 5 Sur 10 Sur 0 -- -- 68
2018-09-07 23:00:00 22.8 6 Sudeste 20 Este 0 -- -- 65
2018-09-07 22:00:00 24 11 Este 30 Sudeste 0 -- -- 57
2018-09-07 21:00:00 25.3 15 Sudeste 31 Este 0 -- -- 52
2018-09-07 20:00:00 26.6 15 Sudeste 35 Este 0 -- -- 49
2018-09-07 19:00:00 28.1 19 Sudeste 35 Sudeste 0 -- -- 50
2018-09-07 18:00:00 29.5 15 Este 32 Sudeste 0 -- -- 44
2018-09-07 17:00:00 29.2 17 Este 32 Sudeste 0 -- -- 42
2018-09-07 16:00:00 29.5 18 Sudeste 31 Este 0 -- -- 45
2018-09-07 15:00:00 29 13 Este 31 Este 0 -- -- 43
2018-09-07 14:00:00 28.4 13 Este 30 Sudeste 0 -- -- 48
2018-09-07 13:00:00 27.6 15 Sudeste 27 Sudeste 0 -- -- 48
2018-09-07 12:00:00 26.5 14 Sudeste 28 Este 0 -- -- 51
2018-09-07 11:00:00 24.8 9 Este 19 Sur 0 -- -- 63
2018-09-07 10:00:00 22.8 0 Calma 5 Nordeste 0 -- -- 69
2018-09-07 09:00:00 20.5 4 Oeste 8 Oeste 0 -- -- 73
2018-09-07 08:00:00 19.5 3 Sudoeste 6 Este 0 -- -- 74
2018-09-07 07:00:00 20 3 Sudeste 7 Sudeste 0 -- -- 71
2018-09-07 06:00:00 20 3 Noroeste 6 Sur 0 -- -- 72
2018-09-07 05:00:00 20.6 2 Nordeste 10 Sur 0 -- -- 70
2018-09-07 04:00:00 21.7 3 Sur 7 Sur 0 -- -- 71
2018-09-07 03:00:00 22.3 3 Sur 7 Sur 0 -- -- 70
2018-09-07 02:00:00 22.6 4 Sudeste 8 Sudeste 0 -- -- 64
2018-09-07 01:00:00 22.8 3 Sudeste 7 Sudeste 0 -- -- 63
2018-09-07 00:00:00 23.5 0 Calma 11 Sudeste 0 -- -- 63
2018-09-06 23:00:00 24.1 4 Nordeste 10 Nordeste 0 -- -- 58
2018-09-06 22:00:00 25.3 4 Este 14 Este 0 -- -- 54
2018-09-06 21:00:00 27.4 8 Este 32 Este 0 -- -- 45
2018-09-06 20:00:00 29 17 Sudeste 36 Este 0 -- -- 38
2018-09-06 19:00:00 31.5 5 Nordeste 15 Norte 0 -- -- 25
2018-09-06 18:00:00 31.7 8 Nordeste 18 Nordeste 0 -- -- 25
2018-09-06 17:00:00 31.4 8 Norte 18 Nordeste 0 -- -- 25
2018-09-06 16:00:00 31.3 9 Sudeste 21 Nordeste 0 -- -- 25
2018-09-06 15:00:00 31 8 Nordeste 19 Nordeste 0 -- -- 26
2018-09-06 14:00:00 30.1 7 Este 19 Noroeste 0 -- -- 28
2018-09-06 13:00:00 29.1 5 Este 18 Norte 0 -- -- 32
2018-09-06 12:00:00 27.3 10 Noroeste 22 Norte 0 -- -- 39
2018-09-06 11:00:00 25.6 13 Noroeste 23 Norte 0 -- -- 44
2018-09-06 10:00:00 23.2 5 Noroeste 12 Noroeste 0 -- -- 50
2018-09-06 09:00:00 20.4 5 Sudeste 7 Sur 0 -- -- 52
2018-09-06 08:00:00 18.8 4 Sur 9 Sudoeste 0 -- -- 58
2018-09-06 07:00:00 19.4 4 Sudoeste 6 Sur 0 -- -- 56
2018-09-06 06:00:00 21.3 7 Oeste 18 Oeste 0 -- -- 52
2018-09-06 05:00:00 21.4 8 Oeste 13 Oeste 0 -- -- 52
2018-09-06 04:00:00 21.8 6 Noroeste 11 Noroeste 0 -- -- 50
2018-09-06 03:00:00 22.4 8 Oeste 13 Noroeste 0 -- -- 47
2018-09-06 02:00:00 23.5 5 Noroeste 10 Noroeste 0 -- -- 42
2018-09-06 01:00:00 23.9 5 Oeste 9 Noroeste 0 -- -- 42
2018-09-06 00:00:00 24.4 5 Noroeste 10 Oeste 0 -- -- 46
2018-09-05 23:00:00 25.6 8 Noroeste 14 Noroeste 0 -- -- 43
2018-09-05 22:00:00 26.2 10 Sudeste 21 Sudeste 0 -- -- 46
2018-09-05 21:00:00 27.2 8 Sudeste 28 Sudeste 0 -- -- 44
2018-09-05 20:00:00 28.6 15 Sudeste 29 Sudeste 0 -- -- 41
2018-09-05 19:00:00 29.7 17 Sudeste 32 Este 0 -- -- 45
2018-09-05 18:00:00 30.7 19 Sudeste 35 Sudeste 0 -- -- 45
2018-09-05 17:00:00 32.5 13 Este 26 Este 0 -- -- 36
2018-09-05 16:00:00 32.3 8 Nordeste 21 Nordeste 0 -- -- 33
2018-09-05 15:00:00 31.9 8 Este 22 Nordeste 0 -- -- 33
2018-09-05 14:00:00 30.8 5 Sur 13 Sur 0 -- -- 36
2018-09-05 13:00:00 29.1 7 Nordeste 14 Norte 0 -- -- 42
2018-09-05 12:00:00 28 6 Nordeste 15 Este 0 -- -- 51
2018-09-05 11:00:00 25.9 5 Norte 11 Noroeste 0 -- -- 55
2018-09-05 10:00:00 23.4 6 Noroeste 10 Noroeste 0 -- -- 66
2018-09-05 09:00:00 21.9 3 Sudoeste 7 Oeste 0 -- -- 74
2018-09-05 08:00:00 21.3 4 Sur 9 Sur 0 -- -- 79
2018-09-05 07:00:00 21.8 5 Sur 8 Sur 0 -- -- 80
2018-09-05 06:00:00 22.3 3 Sudeste 6 Sudeste 0 -- -- 82
2018-09-05 05:00:00 22.6 3 Sudoeste 5 Sudoeste 0 -- -- 85
2018-09-05 04:00:00 22.6 0 Calma 3 Noroeste 0 -- -- 85
2018-09-05 03:00:00 23 0 Calma 6 Sur 0 -- -- 82
2018-09-05 02:00:00 23.4 3 Sur 8 Sur 0 -- -- 81
2018-09-05 01:00:00 23.7 3 Noroeste 6 Noroeste 0 -- -- 80
2018-09-05 00:00:00 24.6 4 Este 15 Sudeste 0 -- -- 74
2018-09-04 23:00:00 25.4 7 Sudeste 17 Sudeste 0 -- -- 71
2018-09-04 22:00:00 26.1 9 Sudeste 26 Sudeste 0 -- -- 69
2018-09-04 21:00:00 27.1 15 Sudeste 32 Sudeste 0 -- -- 65
2018-09-04 20:00:00 28.3 21 Sudeste 36 Este 0 -- -- 60
2018-09-04 19:00:00 30.1 18 Sudeste 37 Sudeste 0 -- -- 53
2018-09-04 18:00:00 31.6 20 Sudeste 38 Sudeste 0 -- -- 38
2018-09-04 17:00:00 32.8 9 Sudeste 22 Nordeste 0 -- -- 37
2018-09-04 16:00:00 31.4 10 Nordeste 19 Nordeste 0 -- -- 41
2018-09-04 15:00:00 30.1 8 Norte 17 Nordeste 0 -- -- 46
2018-09-04 14:00:00 28.4 6 Nordeste 13 Nordeste 0 -- -- 59
2018-09-04 13:00:00 27.4 5 Nordeste 12 Este 0 -- -- 62
2018-09-04 12:00:00 25.6 5 Nordeste 11 Este 0 -- -- 67
2018-09-04 11:00:00 23.2 4 Norte 7 Nordeste 0 -- -- 76
2018-09-04 10:00:00 21.5 3 Oeste 6 Sudeste 0 -- -- 82
2018-09-04 09:00:00 20.1 0 Calma 7 Sudeste 0 -- -- 87
2018-09-04 08:00:00 19.8 3 Sur 6 Noroeste 0 -- -- 90
2018-09-04 07:00:00 19.6 3 Noroeste 12 Oeste 0 -- -- 90
2018-09-04 06:00:00 19.8 7 Oeste 13 Oeste 0 -- -- 91
2018-09-04 05:00:00 20.6 9 Noroeste 12 Oeste 0 -- -- 90
2018-09-04 04:00:00 21.9 2 Este 5 Sudeste 0 -- -- 86
2018-09-04 03:00:00 22.3 4 Sur 10 Sudeste 0 -- -- 85
2018-09-04 02:00:00 22.3 6 Sur 17 Sur 0 -- -- 85
2018-09-04 01:00:00 22.7 11 Sur 16 Sur 0 -- -- 84
2018-09-04 00:00:00 23.1 5 Sudeste 12 Sur 0 -- -- 83
2018-09-03 23:00:00 23.7 5 Sur 19 Sudeste 0 -- -- 81
2018-09-03 22:00:00 24.4 7 Sudeste 19 Sudeste 0 -- -- 75
2018-09-03 21:00:00 25.1 9 Sudeste 30 Este 0 -- -- 74
2018-09-03 20:00:00 24.7 10 Sur 44 Norte 0.8 -- -- 79
2018-09-03 19:00:00 24.1 12 Sur 36 Nordeste 4 -- -- 80
2018-09-03 18:00:00 27.5 10 Oeste 24 Sur 0 -- -- 61
2018-09-03 17:00:00 29.7 14 Sudeste 28 Nordeste 0 -- -- 44
2018-09-03 16:00:00 31.4 14 Sudeste 24 Sudeste 0 -- -- 44
2018-09-03 15:00:00 32.1 13 Este 26 Nordeste 0 -- -- 48
2018-09-03 14:00:00 31 5 Nordeste 13 Nordeste 0 -- -- 49
2018-09-03 13:00:00 29.7 4 Sudeste 12 Este 0 -- -- 57
2018-09-03 12:00:00 27.6 6 Sur 12 Sur 0 -- -- 67
2018-09-03 11:00:00 25.3 4 Nordeste 11 Norte 0 -- -- 77
2018-09-03 10:00:00 22.8 3 Este 14 Sudoeste 0.2 -- -- 90
2018-09-03 09:00:00 20.6 10 Noroeste 14 Noroeste 0 -- -- 91
2018-09-03 08:00:00 21 4 Oeste 8 Oeste 0 -- -- 91
2018-09-03 07:00:00 21.3 0 Calma 8 Sur 0 -- -- 89
2018-09-03 06:00:00 21.8 5 Sur 12 Sudeste 0 -- -- 88
2018-09-03 05:00:00 22.1 7 Sur 12 Sur 0 -- -- 87
2018-09-03 04:00:00 22.7 6 Sur 13 Sur 0 -- -- 87
2018-09-03 03:00:00 22.9 4 Sudoeste 23 Nordeste 1.2 -- -- 86
2018-09-03 02:00:00 23.7 5 Sur 13 Oeste 0 -- -- 78
2018-09-03 01:00:00 24.7 5 Sudeste 22 Este 0 -- -- 74
2018-09-03 00:00:00 25.4 11 Sudeste 19 Sudeste 0 -- -- 70
2018-09-02 23:00:00 25.8 10 Sudeste 23 Sudeste 0 -- -- 67
2018-09-02 22:00:00 27 11 Sudeste 21 Sudeste 0 -- -- 62
2018-09-02 21:00:00 29.1 15 Sudeste 24 Sudeste 0 -- -- 55
2018-09-02 20:00:00 31.1 15 Sudeste 28 Sudeste 0 -- -- 45
2018-09-02 19:00:00 32.4 14 Sudeste 27 Sudeste 0 -- -- 40
2018-09-02 18:00:00 32.7 15 Sudeste 28 Este 0 -- -- 38
2018-09-02 17:00:00 32.9 12 Sudeste 26 Este 0 -- -- 38
2018-09-02 16:00:00 32 13 Sudeste 30 Este 0 -- -- 42
2018-09-02 15:00:00 30.3 12 Sudeste 25 Este 0 -- -- 47
2018-09-02 14:00:00 30 12 Sudeste 23 Sudeste 0 -- -- 47
2018-09-02 13:00:00 28.5 6 Nordeste 15 Nordeste 0 -- -- 54
2018-09-02 12:00:00 26.5 5 Nordeste 12 Nordeste 0 -- -- 63
2018-09-02 11:00:00 25 5 Nordeste 13 Este 0 -- -- 69
2018-09-02 10:00:00 23.1 3 Este 7 Nordeste 0 -- -- 76
2018-09-02 09:00:00 21.3 2 Este 5 Sudeste 0 -- -- 78
2018-09-02 08:00:00 19.6 0 Calma 5 Sur 0 -- -- 86
2018-09-02 07:00:00 20.2 0 Calma 8 Sudeste 0 -- -- 86
2018-09-02 06:00:00 20.8 2 Sudeste 10 Sur 0 -- -- 85
2018-09-02 05:00:00 21.2 6 Sudeste 12 Sur 0 -- -- 85
2018-09-02 04:00:00 21.6 7 Sudeste 14 Sudeste 0 -- -- 83
2018-09-02 03:00:00 22 6 Sudeste 15 Sudeste 0 -- -- 81
2018-09-02 02:00:00 22.3 10 Sudeste 19 Sudeste 0 -- -- 79
2018-09-02 01:00:00 22.8 10 Sudeste 20 Sudeste 0 -- -- 76
2018-09-02 00:00:00 23.4 12 Sudeste 22 Sudeste 0 -- -- 71
2018-09-01 23:00:00 24.4 11 Sudeste 24 Sudeste 0 -- -- 63
2018-09-01 22:00:00 25.5 12 Sudeste 27 Sudeste 0 -- -- 59
2018-09-01 21:00:00 27 15 Sudeste 28 Sudeste 0 -- -- 55
2018-09-01 20:00:00 28.8 16 Sudeste 31 Sudeste 0 -- -- 50
2018-09-01 19:00:00 30.4 19 Sudeste 33 Sudeste 0 -- -- 47
2018-09-01 18:00:00 31.2 17 Sudeste 35 Sudeste 0 -- -- 45
2018-09-01 17:00:00 31.3 17 Sudeste 33 Sudeste 0 -- -- 45
2018-09-01 16:00:00 31.2 16 Sudeste 31 Este 0 -- -- 45
2018-09-01 15:00:00 31 16 Sudeste 27 Sudeste 0 -- -- 45
2018-09-01 14:00:00 29.8 12 Sudeste 28 Sudeste 0 -- -- 47
2018-09-01 13:00:00 28.5 14 Sudeste 25 Sudeste 0 -- -- 52
2018-09-01 12:00:00 27.4 8 Sudeste 20 Sudeste 0 -- -- 58
2018-09-01 11:00:00 26.2 8 Sudeste 16 Sudeste 0 -- -- 61
2018-09-01 10:00:00 24 4 Sudeste 8 Sur 0 -- -- 74
2018-09-01 09:00:00 21.9 3 Sudeste 6 Sudeste 0 -- -- 78
2018-09-01 08:00:00 20.6 3 Sur 7 Sudeste 0 -- -- 85
2018-09-01 07:00:00 20.9 3 Sudeste 6 Sudeste 0 -- -- 80
2018-09-01 06:00:00 21.2 0 Calma 5 Este 0 -- -- 84
2018-09-01 05:00:00 21.3 2 Sudeste 6 Sudeste 0 -- -- 85
2018-09-01 04:00:00 21.8 4 Sudeste 8 Este 0 -- -- 83
2018-09-01 03:00:00 22.2 5 Sudeste 12 Sudeste 0 -- -- 81
2018-09-01 02:00:00 22.6 9 Sudeste 17 Sudeste 0 -- -- 79
2018-09-01 01:00:00 23.1 9 Sudeste 21 Sur 0 -- -- 78
2018-09-01 00:00:00 23.8 9 Sudeste 23 Sudeste 0 -- -- 73
2018-08-31 23:00:00 24.7 15 Sudeste 23 Sudeste 0 -- -- 69
2018-08-31 22:00:00 25.8 13 Sudeste 24 Sudeste 0 -- -- 64
2018-08-31 21:00:00 27.3 14 Sudeste 33 Sudeste 0 -- -- 59
2018-08-31 20:00:00 29 18 Sudeste 33 Sudeste 0 -- -- 53
2018-08-31 19:00:00 30.9 18 Sudeste 30 Sudeste 0 -- -- 46
2018-08-31 18:00:00 32 14 Sudeste 26 Sudeste 0 -- -- 41
2018-08-31 17:00:00 32.4 18 Sudeste 31 Sur 0 -- -- 39
2018-08-31 16:00:00 32.3 12 Este 27 Sudeste 0 -- -- 41
2018-08-31 15:00:00 31.7 14 Sudeste 23 Sudeste 0 -- -- 43
2018-08-31 14:00:00 30.6 8 Sudeste 19 Este 0 -- -- 47
2018-08-31 13:00:00 28.6 6 Nordeste 13 Este 0 -- -- 55
2018-08-31 12:00:00 26.8 3 Oeste 13 Norte 0 -- -- 62
2018-08-31 11:00:00 24.1 4 Este 8 Sudeste 0 -- -- 73
2018-08-31 10:00:00 22.8 3 Sudeste 8 Sudeste 0 -- -- 80
2018-08-31 09:00:00 21.4 5 Sudeste 8 Sudeste 0 -- -- 84
2018-08-31 08:00:00 21.1 3 Oeste 7 Oeste 0 -- -- 85
2018-08-31 07:00:00 20.9 0 Calma 6 Oeste 0 -- -- 83
2018-08-31 06:00:00 21.6 0 Calma 4 Este 0 -- -- 82
2018-08-31 05:00:00 22.3 2 Sudeste 5 Sudeste 0 -- -- 82
2018-08-31 04:00:00 22.6 3 Sur 9 Sudeste 0 -- -- 80
2018-08-31 03:00:00 23.1 6 Sudeste 9 Sudeste 0 -- -- 79
2018-08-31 02:00:00 23.3 5 Sudeste 13 Sur 0 -- -- 79
2018-08-31 01:00:00 23.4 10 Sudeste 23 Sudeste 0 -- -- 79
2018-08-31 00:00:00 23.9 14 Sudeste 25 Sudeste 0 -- -- 78
2018-08-30 23:00:00 24.5 13 Sudeste 26 Sur 0 -- -- 75
2018-08-30 22:00:00 25.5 15 Sudeste 28 Sudeste 0 -- -- 73
2018-08-30 21:00:00 27.1 14 Sudeste 29 Sudeste 0 -- -- 63
2018-08-30 20:00:00 28.9 18 Sudeste 30 Sudeste 0 -- -- 54
2018-08-30 19:00:00 30 17 Sudeste 32 Sudeste 0 -- -- 51
2018-08-30 18:00:00 31.3 15 Sudeste 28 Sudeste 0 -- -- 43
2018-08-30 17:00:00 31.7 13 Sudeste 26 Sudeste 0 -- -- 42
2018-08-30 16:00:00 30.9 13 Sudeste 28 Sudeste 0 -- -- 43
2018-08-30 15:00:00 30.8 7 Sudeste 22 Este 0 -- -- 45
2018-08-30 14:00:00 29.9 13 Este 26 Este 0 -- -- 47
2018-08-30 13:00:00 28 3 Nordeste 12 Nordeste 0 -- -- 53
2018-08-30 12:00:00 27.2 8 Nordeste 15 Nordeste 0 -- -- 56
2018-08-30 11:00:00 26.1 4 Este 9 Sudeste 0 -- -- 63
2018-08-30 10:00:00 23.4 4 Noroeste 8 Noroeste 0.2 -- -- 75
2018-08-30 09:00:00 21.3 4 Noroeste 10 Sudoeste 0 -- -- 81
2018-08-30 08:00:00 21 3 Sur 9 Sudoeste 0 -- -- 82
2018-08-30 07:00:00 20.9 7 Oeste 10 Oeste 0 -- -- 85
2018-08-30 06:00:00 20.9 3 Oeste 5 Oeste 0 -- -- 85
2018-08-30 05:00:00 21.9 3 Oeste 7 Sur 0 -- -- 81
2018-08-30 04:00:00 22 7 Oeste 12 Nordeste 0 -- -- 82
2018-08-30 03:00:00 22.4 7 Norte 16 Norte 0 -- -- 83
2018-08-30 02:00:00 23.2 5 Este 19 Sudeste 0 -- -- 73
2018-08-30 01:00:00 22.2 10 Sur 30 Sur 0.2 -- -- 75
2018-08-30 00:00:00 25.3 10 Sudoeste 24 Este 0 -- -- 65
2018-08-29 23:00:00 24.9 11 Nordeste 23 Este 0 -- -- 69
2018-08-29 22:00:00 27 10 Sudeste 32 Sudeste 0 -- -- 59
2018-08-29 21:00:00 28.4 17 Sudeste 37 Sudeste 0 -- -- 58
2018-08-29 20:00:00 30.4 21 Sudeste 39 Sudeste 0 -- -- 51
2018-08-29 19:00:00 33.2 14 Sudeste 27 Sudeste 0 -- -- 34
2018-08-29 18:00:00 33.6 16 Sudeste 30 Este 0 -- -- 33
2018-08-29 17:00:00 34 14 Sudeste 26 Nordeste 0 -- -- 32
2018-08-29 16:00:00 33.7 16 Nordeste 29 Nordeste 0 -- -- 33
2018-08-29 15:00:00 33.6 9 Este 22 Sudeste 0 -- -- 33
2018-08-29 14:00:00 32.3 9 Este 21 Este 0 -- -- 34
2018-08-29 13:00:00 30.4 10 Nordeste 17 Nordeste 0 -- -- 42
2018-08-29 12:00:00 28.5 5 Nordeste 12 Nordeste 0 -- -- 48
2018-08-29 11:00:00 27 4 Sudeste 7 Sudeste 0 -- -- 51
2018-08-29 10:00:00 24 4 Sur 9 Sudeste 0 -- -- 61
2018-08-29 09:00:00 20.9 5 Noroeste 10 Noroeste 0 -- -- 68
2018-08-29 08:00:00 19.7 3 Sur 8 Sur 0 -- -- 73
2018-08-29 07:00:00 20.2 2 Sur 8 Oeste 0 -- -- 72
2018-08-29 06:00:00 20.6 0 Calma 9 Sur 0 -- -- 73
2018-08-29 05:00:00 20.4 4 Sur 10 Oeste 0 -- -- 74
2018-08-29 04:00:00 20.7 3 Oeste 9 Noroeste 0 -- -- 75
2018-08-29 03:00:00 21.8 4 Norte 9 Noroeste 0 -- -- 75
2018-08-29 02:00:00 23 0 Calma 12 Este 0 -- -- 66
2018-08-29 01:00:00 23.9 6 Sudeste 15 Sudeste 0 -- -- 64
2018-08-29 00:00:00 24.7 8 Sudeste 18 Sur 0 -- -- 59
2018-08-28 23:00:00 25.7 11 Sudeste 27 Sudeste 0 -- -- 48
2018-08-28 22:00:00 26.9 14 Sur 26 Este 0 -- -- 43
2018-08-28 21:00:00 27.7 4 Sudoeste 16 Este 0 -- -- 41
2018-08-28 20:00:00 29.5 10 Este 34 Sudeste 0 -- -- 41
2018-08-28 19:00:00 30.7 21 Sudeste 36 Sudeste 0 -- -- 42
2018-08-28 18:00:00 32.5 21 Sudeste 40 Este 0 -- -- 39
2018-08-28 17:00:00 33.4 20 Sudeste 37 Sudeste 0 -- -- 35
2018-08-28 16:00:00 32.9 17 Sudeste 31 Este 0 -- -- 37
2018-08-28 15:00:00 32.5 15 Sudeste 28 Sudeste 0 -- -- 35
2018-08-28 14:00:00 30.1 9 Nordeste 18 Nordeste 0 -- -- 52
2018-08-28 13:00:00 27.4 8 Nordeste 12 Nordeste 0 -- -- 60
2018-08-28 12:00:00 26.3 4 Nordeste 12 Este 0 -- -- 66
2018-08-28 11:00:00 24.5 3 Sudeste 10 Sudeste 0 -- -- 72
2018-08-28 10:00:00 22.9 3 Noroeste 10 Norte 0 -- -- 80
2018-08-28 09:00:00 22 2 Noroeste 6 Norte 0 -- -- 85
2018-08-28 08:00:00 21.3 3 Norte 5 Oeste 0 -- -- 89
2018-08-28 07:00:00 21.6 2 Noroeste 15 Sudeste 0 -- -- 85
2018-08-28 06:00:00 22.4 8 Este 15 Este 0 -- -- 81
2018-08-28 05:00:00 22.5 11 Sudeste 20 Sudeste 0 -- -- 82
2018-08-28 04:00:00 22.8 8 Este 18 Este 0 -- -- 82
2018-08-28 03:00:00 23.1 13 Sudeste 23 Sudeste 0 -- -- 81
2018-08-28 02:00:00 23.4 16 Sudeste 24 Sudeste 0 -- -- 78
2018-08-28 01:00:00 24.3 13 Sudeste 21 Sudeste 0 -- -- 73
2018-08-28 00:00:00 24.6 12 Este 23 Sudeste 0 -- -- 72
2018-08-27 23:00:00 25.3 13 Sudeste 24 Sudeste 0 -- -- 68
2018-08-27 22:00:00 26.4 13 Sudeste 21 Sur 0 -- -- 63
2018-08-27 21:00:00 27.9 11 Sudeste 27 Sudeste 0 -- -- 57
2018-08-27 20:00:00 29.7 16 Sudeste 32 Sudeste 0 -- -- 50
2018-08-27 19:00:00 31.2 21 Sudeste 35 Sudeste 0 -- -- 45
2018-08-27 18:00:00 32.9 17 Sudeste 28 Sudeste 0 -- -- 40
2018-08-27 17:00:00 33.3 15 Sudeste 29 Sudeste 0 -- -- 39
2018-08-27 16:00:00 33.1 11 Sudeste 29 Sudeste 0 -- -- 40
2018-08-27 15:00:00 32.6 12 Sudeste 21 Sudeste 0 -- -- 42
2018-08-27 14:00:00 30.2 10 Nordeste 19 Nordeste 0 -- -- 55
2018-08-27 13:00:00 28.3 6 Nordeste 19 Nordeste 0 -- -- 61
2018-08-27 12:00:00 26.7 6 Nordeste 17 Este 0 -- -- 66
2018-08-27 11:00:00 24 4 Sudeste 10 Sudoeste 0 -- -- 75
2018-08-27 10:00:00 23.2 4 Sur 10 Sur 0 -- -- 79
2018-08-27 09:00:00 22.8 4 Sur 13 Sudeste 0 -- -- 81
2018-08-27 08:00:00 22.7 3 Sudeste 6 Sudeste 0 -- -- 83
2018-08-27 07:00:00 22.4 2 Norte 5 Norte 0 -- -- 85
2018-08-27 06:00:00 22.5 3 Norte 5 Este 0 -- -- 86
2018-08-27 05:00:00 22.6 3 Sudeste 8 Sudeste 0 -- -- 82
2018-08-27 04:00:00 22.4 0 Calma 10 Sudeste 0 -- -- 85
2018-08-27 03:00:00 22.9 7 Sudeste 12 Sudeste 0 -- -- 81
2018-08-27 02:00:00 23.1 7 Sudeste 15 Sur 0 -- -- 80
2018-08-27 01:00:00 23.7 10 Sudeste 17 Sudeste 0 -- -- 78
2018-08-27 00:00:00 24.4 10 Sudeste 20 Sudeste 0 -- -- 75
2018-08-26 23:00:00 25.3 14 Sudeste 22 Sudeste 0 -- -- 70
2018-08-26 22:00:00 26.6 9 Sudeste 22 Este 0 -- -- 65
2018-08-26 21:00:00 28 12 Sudeste 31 Sudeste 0 -- -- 59
2018-08-26 20:00:00 29.3 21 Sudeste 37 Sudeste 0 -- -- 55
2018-08-26 19:00:00 31.2 21 Sudeste 36 Sudeste 0 -- -- 48
2018-08-26 18:00:00 32.3 19 Sudeste 33 Sudeste 0 -- -- 42
2018-08-26 17:00:00 32.7 16 Sudeste 29 Sudeste 0 -- -- 42
2018-08-26 16:00:00 32.8 10 Sudeste 24 Nordeste 0 -- -- 41
2018-08-26 15:00:00 30.8 13 Nordeste 24 Nordeste 0 -- -- 48
2018-08-26 14:00:00 29.9 9 Nordeste 21 Nordeste 0 -- -- 51
2018-08-26 13:00:00 28.5 8 Nordeste 18 Nordeste 0 -- -- 57
2018-08-26 12:00:00 27.3 6 Nordeste 12 Nordeste 0 -- -- 61
2018-08-26 11:00:00 26.2 7 Sudeste 12 Sudeste 0 -- -- 64
2018-08-26 10:00:00 24.3 2 Este 6 Nordeste 0 -- -- 70
2018-08-26 09:00:00 22.2 4 Sudeste 6 Sudeste 0 -- -- 76
2018-08-26 08:00:00 21.1 0 Calma 5 Nordeste 0 -- -- 77
2018-08-26 07:00:00 21.3 0 Calma 5 Sudoeste 0 -- -- 76
2018-08-26 06:00:00 21.3 0 Calma 6 Sudeste 0 -- -- 76
2018-08-26 05:00:00 21.9 3 Sudeste 10 Sur 0 -- -- 73
2018-08-26 04:00:00 22.3 6 Sudoeste 10 Sudoeste 0 -- -- 73
2018-08-26 03:00:00 23 4 Sur 9 Este 0 -- -- 70
2018-08-26 02:00:00 23.6 6 Sudeste 12 Sudeste 0 -- -- 68
2018-08-26 01:00:00 24.4 5 Sudeste 19 Sudeste 0 -- -- 68
2018-08-26 00:00:00 25.3 9 Sudeste 19 Sudeste 0 -- -- 64
2018-08-25 23:00:00 26.3 14 Sudeste 27 Sudeste 0 -- -- 61
2018-08-25 22:00:00 27.4 13 Sudeste 28 Sur 0 -- -- 57
2018-08-25 21:00:00 29.2 16 Sudeste 30 Sudeste 0 -- -- 55
2018-08-25 20:00:00 30.9 16 Sudeste 35 Sudeste 0 -- -- 50
2018-08-25 19:00:00 32.4 22 Sudeste 34 Sudeste 0 -- -- 45
2018-08-25 18:00:00 33.2 17 Sudeste 28 Sudeste 0 -- -- 37
2018-08-25 17:00:00 34 16 Sudeste 31 Sur 0 -- -- 33
2018-08-25 16:00:00 34.8 13 Este 22 Este 0 -- -- 30
2018-08-25 15:00:00 33.8 12 Nordeste 19 Nordeste 0 -- -- 27
2018-08-25 14:00:00 32.4 9 Nordeste 15 Nordeste 0 -- -- 36
2018-08-25 13:00:00 31.1 4 Norte 12 Norte 0 -- -- 37
2018-08-25 12:00:00 28.9 6 Nordeste 12 Nordeste 0 -- -- 44
2018-08-25 11:00:00 27 4 Nordeste 10 Este 0 -- -- 49
2018-08-25 10:00:00 24.6 5 Noroeste 9 Norte 0 -- -- 54
2018-08-25 09:00:00 22.9 0 Calma 8 Oeste 0 -- -- 60
2018-08-25 08:00:00 21.6 0 Calma 10 Oeste 0 -- -- 60
2018-08-25 07:00:00 21.7 6 Noroeste 12 Oeste 0 -- -- 61
2018-08-25 06:00:00 22.7 2 Oeste 11 Oeste 0 -- -- 54
2018-08-25 05:00:00 22.7 3 Noroeste 15 Oeste 0 -- -- 54
2018-08-25 04:00:00 23.5 8 Oeste 11 Oeste 0 -- -- 55
2018-08-25 03:00:00 23.9 5 Norte 9 Nordeste 0 -- -- 58
2018-08-25 02:00:00 24.4 3 Nordeste 6 Oeste 0 -- -- 55
2018-08-25 01:00:00 25.2 3 Noroeste 11 Sudeste 0 -- -- 52
2018-08-25 00:00:00 26.9 5 Sudeste 9 Sudeste 0 -- -- 40
2018-08-24 23:00:00 27.7 0 Calma 9 Sudeste 0 -- -- 45
2018-08-24 22:00:00 29.2 4 Sudeste 10 Sudeste 0 -- -- 37
2018-08-24 21:00:00 31.3 4 Sudeste 20 Este 0 -- -- 33
2018-08-24 20:00:00 32.4 18 Sudeste 41 Sudeste 0 -- -- 29
2018-08-24 19:00:00 32 15 Nordeste 44 Norte 0 -- -- 30
2018-08-24 18:00:00 34.9 11 Nordeste 20 Nordeste 0 -- -- 23
2018-08-24 17:00:00 35 12 Nordeste 22 Nordeste 0 -- -- 24
2018-08-24 16:00:00 35.3 11 Nordeste 20 Nordeste 0 -- -- 25
2018-08-24 15:00:00 34.6 8 Nordeste 18 Nordeste 0 -- -- 25
2018-08-24 14:00:00 33.7 7 Este 14 Nordeste 0 -- -- 26
2018-08-24 13:00:00 31.9 6 Nordeste 15 Nordeste 0 -- -- 32
2018-08-24 12:00:00 30 7 Nordeste 13 Este 0 -- -- 38
2018-08-24 11:00:00 27.7 5 Nordeste 9 Nordeste 0 -- -- 41
2018-08-24 10:00:00 24.8 2 Norte 6 Noroeste 0 -- -- 50
2018-08-24 09:00:00 21.4 2 Sudeste 8 Sur 0 -- -- 60
2018-08-24 08:00:00 19.3 3 Sudeste 9 Sudoeste 0 -- -- 66
2018-08-24 07:00:00 19.2 3 Sur 7 Sudeste 0 -- -- 67
2018-08-24 06:00:00 20.2 3 Sur 7 Sur 0 -- -- 65
2018-08-24 05:00:00 20.9 4 Sur 13 Sudeste 0 -- -- 63
2018-08-24 04:00:00 20.8 0 Calma 6 Noroeste 0 -- -- 67
2018-08-24 03:00:00 21.1 3 Noroeste 10 Noroeste 0 -- -- 66
2018-08-24 02:00:00 22.7 4 Norte 8 Noroeste 0 -- -- 59
2018-08-24 01:00:00 22.3 3 Sudoeste 9 Norte 0 -- -- 60
2018-08-24 00:00:00 22.3 3 Norte 14 Oeste 0 -- -- 59